sensor_id;sensor_type;location;lat;lon;timestamp;P1;durP1;ratioP1;P2;durP2;ratioP2
18752;SDS011;9505;50.882;5.350;2023-08-06T00:00:16;13.40;;;2.17;;
18752;SDS011;9505;50.882;5.350;2023-08-06T00:02:42;11.05;;;2.40;;
18752;SDS011;9505;50.882;5.350;2023-08-06T00:05:07;10.95;;;2.13;;
18752;SDS011;9505;50.882;5.350;2023-08-06T00:07:33;14.50;;;2.78;;
18752;SDS011;9505;50.882;5.350;2023-08-06T00:09:59;13.57;;;2.45;;
18752;SDS011;9505;50.882;5.350;2023-08-06T00:12:24;12.07;;;2.47;;
18752;SDS011;9505;50.882;5.350;2023-08-06T00:14:50;17.42;;;2.78;;
18752;SDS011;9505;50.882;5.350;2023-08-06T00:17:16;16.27;;;2.20;;
18752;SDS011;9505;50.882;5.350;2023-08-06T00:19:42;9.27;;;2.25;;
18752;SDS011;9505;50.882;5.350;2023-08-06T00:22:08;22.08;;;2.92;;
18752;SDS011;9505;50.882;5.350;2023-08-06T00:24:34;15.35;;;2.70;;
18752;SDS011;9505;50.882;5.350;2023-08-06T00:27:00;22.73;;;2.67;;
18752;SDS011;9505;50.882;5.350;2023-08-06T00:29:26;19.05;;;2.63;;
18752;SDS011;9505;50.882;5.350;2023-08-06T00:31:52;18.50;;;2.88;;
18752;SDS011;9505;50.882;5.350;2023-08-06T00:34:17;8.48;;;1.98;;
18752;SDS011;9505;50.882;5.350;2023-08-06T00:36:43;13.85;;;2.33;;
18752;SDS011;9505;50.882;5.350;2023-08-06T00:39:08;21.15;;;2.97;;
18752;SDS011;9505;50.882;5.350;2023-08-06T00:41:34;15.68;;;2.17;;
18752;SDS011;9505;50.882;5.350;2023-08-06T00:44:00;9.07;;;1.80;;
18752;SDS011;9505;50.882;5.350;2023-08-06T00:46:26;15.93;;;2.63;;
18752;SDS011;9505;50.882;5.350;2023-08-06T00:48:51;8.73;;;2.05;;
18752;SDS011;9505;50.882;5.350;2023-08-06T00:51:17;14.18;;;2.00;;
18752;SDS011;9505;50.882;5.350;2023-08-06T00:53:45;15.45;;;2.58;;
18752;SDS011;9505;50.882;5.350;2023-08-06T00:56:11;21.08;;;2.47;;
18752;SDS011;9505;50.882;5.350;2023-08-06T00:58:37;13.43;;;2.40;;
18752;SDS011;9505;50.882;5.350;2023-08-06T01:01:04;14.05;;;2.25;;
18752;SDS011;9505;50.882;5.350;2023-08-06T01:03:30;14.02;;;2.30;;
18752;SDS011;9505;50.882;5.350;2023-08-06T01:05:56;14.80;;;2.50;;
18752;SDS011;9505;50.882;5.350;2023-08-06T01:08:28;13.18;;;2.45;;
18752;SDS011;9505;50.882;5.350;2023-08-06T01:13:54;15.38;;;1.92;;
18752;SDS011;9505;50.882;5.350;2023-08-06T01:16:31;15.43;;;2.30;;
18752;SDS011;9505;50.882;5.350;2023-08-06T01:18:58;8.88;;;1.70;;
18752;SDS011;9505;50.882;5.350;2023-08-06T01:21:24;8.90;;;1.92;;
18752;SDS011;9505;50.882;5.350;2023-08-06T01:23:49;15.48;;;2.45;;
18752;SDS011;9505;50.882;5.350;2023-08-06T01:31:36;13.80;;;2.20;;
18752;SDS011;9505;50.882;5.350;2023-08-06T01:34:05;11.50;;;2.13;;
18752;SDS011;9505;50.882;5.350;2023-08-06T01:36:33;18.05;;;2.38;;
18752;SDS011;9505;50.882;5.350;2023-08-06T01:38:59;8.27;;;1.65;;
18752;SDS011;9505;50.882;5.350;2023-08-06T01:41:25;9.85;;;1.95;;
18752;SDS011;9505;50.882;5.350;2023-08-06T01:43:51;12.15;;;2.15;;
18752;SDS011;9505;50.882;5.350;2023-08-06T01:46:16;8.85;;;1.90;;
18752;SDS011;9505;50.882;5.350;2023-08-06T01:48:42;13.90;;;2.22;;
18752;SDS011;9505;50.882;5.350;2023-08-06T01:51:08;10.70;;;1.75;;
18752;SDS011;9505;50.882;5.350;2023-08-06T01:53:34;10.48;;;2.13;;
18752;SDS011;9505;50.882;5.350;2023-08-06T01:56:00;8.65;;;1.73;;
18752;SDS011;9505;50.882;5.350;2023-08-06T01:58:25;11.13;;;2.00;;
18752;SDS011;9505;50.882;5.350;2023-08-06T02:00:51;12.73;;;2.05;;
18752;SDS011;9505;50.882;5.350;2023-08-06T02:03:17;13.20;;;1.90;;
18752;SDS011;9505;50.882;5.350;2023-08-06T02:05:42;10.15;;;2.17;;
18752;SDS011;9505;50.882;5.350;2023-08-06T02:08:08;13.63;;;2.42;;
18752;SDS011;9505;50.882;5.350;2023-08-06T02:10:34;11.25;;;1.67;;
18752;SDS011;9505;50.882;5.350;2023-08-06T02:12:59;12.23;;;1.70;;
18752;SDS011;9505;50.882;5.350;2023-08-06T02:15:25;9.40;;;1.98;;
18752;SDS011;9505;50.882;5.350;2023-08-06T02:17:51;7.30;;;1.75;;
18752;SDS011;9505;50.882;5.350;2023-08-06T02:20:16;12.93;;;2.33;;
18752;SDS011;9505;50.882;5.350;2023-08-06T02:22:42;8.32;;;1.83;;
18752;SDS011;9505;50.882;5.350;2023-08-06T02:25:08;15.25;;;2.47;;
18752;SDS011;9505;50.882;5.350;2023-08-06T02:27:33;11.48;;;2.30;;
18752;SDS011;9505;50.882;5.350;2023-08-06T02:29:59;5.70;;;1.70;;
18752;SDS011;9505;50.882;5.350;2023-08-06T02:32:25;12.10;;;2.28;;
18752;SDS011;9505;50.882;5.350;2023-08-06T02:34:50;13.88;;;2.58;;
18752;SDS011;9505;50.882;5.350;2023-08-06T02:37:16;4.93;;;1.40;;
18752;SDS011;9505;50.882;5.350;2023-08-06T02:39:42;11.27;;;2.60;;
18752;SDS011;9505;50.882;5.350;2023-08-06T02:42:08;10.50;;;2.00;;
18752;SDS011;9505;50.882;5.350;2023-08-06T02:44:34;11.90;;;2.33;;
18752;SDS011;9505;50.882;5.350;2023-08-06T02:47:00;14.77;;;2.55;;
18752;SDS011;9505;50.882;5.350;2023-08-06T02:49:26;12.60;;;2.88;;
18752;SDS011;9505;50.882;5.350;2023-08-06T02:51:52;15.27;;;2.42;;
18752;SDS011;9505;50.882;5.350;2023-08-06T02:54:18;9.88;;;2.10;;
18752;SDS011;9505;50.882;5.350;2023-08-06T02:56:47;13.05;;;2.30;;
18752;SDS011;9505;50.882;5.350;2023-08-06T02:59:13;13.73;;;2.83;;
18752;SDS011;9505;50.882;5.350;2023-08-06T03:01:39;12.68;;;2.45;;
18752;SDS011;9505;50.882;5.350;2023-08-06T03:04:05;9.45;;;2.10;;
18752;SDS011;9505;50.882;5.350;2023-08-06T03:06:31;15.75;;;2.92;;
18752;SDS011;9505;50.882;5.350;2023-08-06T03:08:57;10.05;;;2.10;;
18752;SDS011;9505;50.882;5.350;2023-08-06T03:11:22;14.45;;;3.17;;
18752;SDS011;9505;50.882;5.350;2023-08-06T03:13:48;14.52;;;3.58;;
18752;SDS011;9505;50.882;5.350;2023-08-06T03:16:14;11.20;;;2.63;;
18752;SDS011;9505;50.882;5.350;2023-08-06T03:18:40;12.23;;;2.92;;
18752;SDS011;9505;50.882;5.350;2023-08-06T03:21:05;14.77;;;3.42;;
18752;SDS011;9505;50.882;5.350;2023-08-06T03:23:31;14.48;;;3.75;;
18752;SDS011;9505;50.882;5.350;2023-08-06T03:26:03;13.48;;;3.53;;
18752;SDS011;9505;50.882;5.350;2023-08-06T03:28:28;12.15;;;4.03;;
18752;SDS011;9505;50.882;5.350;2023-08-06T03:31:01;21.35;;;4.47;;
18752;SDS011;9505;50.882;5.350;2023-08-06T03:33:28;20.75;;;5.43;;
18752;SDS011;9505;50.882;5.350;2023-08-06T03:35:53;15.77;;;4.60;;
18752;SDS011;9505;50.882;5.350;2023-08-06T03:38:19;21.85;;;4.97;;
18752;SDS011;9505;50.882;5.350;2023-08-06T03:40:48;24.77;;;5.32;;
18752;SDS011;9505;50.882;5.350;2023-08-06T03:43:14;22.38;;;6.00;;
18752;SDS011;9505;50.882;5.350;2023-08-06T03:45:40;19.67;;;5.20;;
18752;SDS011;9505;50.882;5.350;2023-08-06T03:48:06;22.92;;;6.18;;
18752;SDS011;9505;50.882;5.350;2023-08-06T03:50:32;20.98;;;6.45;;
18752;SDS011;9505;50.882;5.350;2023-08-06T03:52:58;27.65;;;6.60;;
18752;SDS011;9505;50.882;5.350;2023-08-06T03:55:23;26.05;;;6.97;;
18752;SDS011;9505;50.882;5.350;2023-08-06T03:57:49;25.75;;;6.85;;
18752;SDS011;9505;50.882;5.350;2023-08-06T04:00:15;20.40;;;6.25;;
18752;SDS011;9505;50.882;5.350;2023-08-06T04:02:40;22.92;;;6.90;;
18752;SDS011;9505;50.882;5.350;2023-08-06T04:05:06;26.52;;;6.82;;
18752;SDS011;9505;50.882;5.350;2023-08-06T04:07:32;20.45;;;7.57;;
18752;SDS011;9505;50.882;5.350;2023-08-06T04:09:59;25.60;;;8.02;;
18752;SDS011;9505;50.882;5.350;2023-08-06T04:12:26;28.55;;;8.27;;
18752;SDS011;9505;50.882;5.350;2023-08-06T04:14:52;30.60;;;8.10;;
18752;SDS011;9505;50.882;5.350;2023-08-06T04:17:19;25.05;;;7.57;;
18752;SDS011;9505;50.882;5.350;2023-08-06T04:19:49;31.20;;;8.38;;
18752;SDS011;9505;50.882;5.350;2023-08-06T04:22:16;37.28;;;9.15;;
18752;SDS011;9505;50.882;5.350;2023-08-06T04:24:42;33.72;;;8.82;;
18752;SDS011;9505;50.882;5.350;2023-08-06T04:27:08;25.13;;;8.25;;
18752;SDS011;9505;50.882;5.350;2023-08-06T04:29:35;25.02;;;8.10;;
18752;SDS011;9505;50.882;5.350;2023-08-06T04:32:00;29.48;;;8.27;;
18752;SDS011;9505;50.882;5.350;2023-08-06T04:34:26;26.83;;;8.82;;
18752;SDS011;9505;50.882;5.350;2023-08-06T04:36:52;22.80;;;8.45;;
18752;SDS011;9505;50.882;5.350;2023-08-06T04:39:17;25.73;;;8.60;;
18752;SDS011;9505;50.882;5.350;2023-08-06T04:41:43;26.63;;;8.73;;
18752;SDS011;9505;50.882;5.350;2023-08-06T04:44:09;26.13;;;8.48;;
18752;SDS011;9505;50.882;5.350;2023-08-06T04:46:34;29.90;;;9.15;;
18752;SDS011;9505;50.882;5.350;2023-08-06T04:49:00;32.53;;;9.90;;
18752;SDS011;9505;50.882;5.350;2023-08-06T04:51:26;25.73;;;9.30;;
18752;SDS011;9505;50.882;5.350;2023-08-06T04:53:51;30.90;;;8.32;;
18752;SDS011;9505;50.882;5.350;2023-08-06T04:56:17;30.17;;;9.48;;
18752;SDS011;9505;50.882;5.350;2023-08-06T04:58:43;25.48;;;9.02;;
18752;SDS011;9505;50.882;5.350;2023-08-06T05:01:09;31.23;;;10.02;;
18752;SDS011;9505;50.882;5.350;2023-08-06T05:03:34;32.20;;;9.45;;
18752;SDS011;9505;50.882;5.350;2023-08-06T05:06:00;32.50;;;9.52;;
18752;SDS011;9505;50.882;5.350;2023-08-06T05:08:25;26.67;;;8.88;;
18752;SDS011;9505;50.882;5.350;2023-08-06T05:10:51;34.10;;;9.88;;
18752;SDS011;9505;50.882;5.350;2023-08-06T05:13:17;31.98;;;9.05;;
18752;SDS011;9505;50.882;5.350;2023-08-06T05:15:42;31.40;;;8.43;;
18752;SDS011;9505;50.882;5.350;2023-08-06T05:18:10;24.60;;;7.50;;
18752;SDS011;9505;50.882;5.350;2023-08-06T05:20:37;26.35;;;8.23;;
18752;SDS011;9505;50.882;5.350;2023-08-06T05:23:06;31.10;;;8.82;;
18752;SDS011;9505;50.882;5.350;2023-08-06T05:25:31;21.48;;;6.80;;
18752;SDS011;9505;50.882;5.350;2023-08-06T05:27:59;20.77;;;6.22;;
18752;SDS011;9505;50.882;5.350;2023-08-06T05:30:26;25.95;;;6.95;;
18752;SDS011;9505;50.882;5.350;2023-08-06T05:32:52;23.98;;;6.47;;
18752;SDS011;9505;50.882;5.350;2023-08-06T05:35:18;19.13;;;6.10;;
18752;SDS011;9505;50.882;5.350;2023-08-06T05:37:43;20.85;;;5.97;;
18752;SDS011;9505;50.882;5.350;2023-08-06T05:40:09;15.25;;;5.70;;
18752;SDS011;9505;50.882;5.350;2023-08-06T05:42:35;14.68;;;4.70;;
18752;SDS011;9505;50.882;5.350;2023-08-06T05:45:00;19.90;;;5.22;;
18752;SDS011;9505;50.882;5.350;2023-08-06T05:47:26;15.30;;;4.38;;
18752;SDS011;9505;50.882;5.350;2023-08-06T05:49:52;16.48;;;4.72;;
18752;SDS011;9505;50.882;5.350;2023-08-06T05:52:17;17.23;;;4.75;;
18752;SDS011;9505;50.882;5.350;2023-08-06T05:54:43;12.13;;;4.05;;
18752;SDS011;9505;50.882;5.350;2023-08-06T05:57:09;16.13;;;4.85;;
18752;SDS011;9505;50.882;5.350;2023-08-06T05:59:34;19.73;;;4.57;;
18752;SDS011;9505;50.882;5.350;2023-08-06T06:02:00;15.13;;;4.22;;
18752;SDS011;9505;50.882;5.350;2023-08-06T06:04:25;7.18;;;3.35;;
18752;SDS011;9505;50.882;5.350;2023-08-06T06:06:51;13.95;;;3.20;;
18752;SDS011;9505;50.882;5.350;2023-08-06T06:09:17;11.40;;;3.47;;
18752;SDS011;9505;50.882;5.350;2023-08-06T06:11:42;15.20;;;4.30;;
18752;SDS011;9505;50.882;5.350;2023-08-06T06:14:08;27.35;;;4.88;;
18752;SDS011;9505;50.882;5.350;2023-08-06T06:16:34;15.73;;;5.18;;
18752;SDS011;9505;50.882;5.350;2023-08-06T06:18:59;20.40;;;4.32;;
18752;SDS011;9505;50.882;5.350;2023-08-06T06:21:25;15.90;;;3.40;;
18752;SDS011;9505;50.882;5.350;2023-08-06T06:23:51;13.60;;;3.10;;
18752;SDS011;9505;50.882;5.350;2023-08-06T06:26:17;9.98;;;2.80;;
18752;SDS011;9505;50.882;5.350;2023-08-06T06:28:45;10.98;;;2.97;;
18752;SDS011;9505;50.882;5.350;2023-08-06T06:31:11;19.58;;;4.07;;
18752;SDS011;9505;50.882;5.350;2023-08-06T06:33:36;8.07;;;2.88;;
18752;SDS011;9505;50.882;5.350;2023-08-06T06:36:02;14.90;;;4.18;;
18752;SDS011;9505;50.882;5.350;2023-08-06T06:38:28;12.30;;;3.75;;
18752;SDS011;9505;50.882;5.350;2023-08-06T06:40:54;14.23;;;4.60;;
18752;SDS011;9505;50.882;5.350;2023-08-06T06:43:21;17.83;;;4.60;;
18752;SDS011;9505;50.882;5.350;2023-08-06T06:45:47;14.35;;;5.50;;
18752;SDS011;9505;50.882;5.350;2023-08-06T06:48:27;16.50;;;6.38;;
18752;SDS011;9505;50.882;5.350;2023-08-06T06:50:54;16.10;;;5.70;;
18752;SDS011;9505;50.882;5.350;2023-08-06T06:53:19;20.70;;;7.00;;
18752;SDS011;9505;50.882;5.350;2023-08-06T06:55:45;17.08;;;7.50;;
18752;SDS011;9505;50.882;5.350;2023-08-06T06:58:14;28.33;;;8.30;;
18752;SDS011;9505;50.882;5.350;2023-08-06T07:00:41;25.00;;;8.48;;
18752;SDS011;9505;50.882;5.350;2023-08-06T07:03:07;22.63;;;8.40;;
18752;SDS011;9505;50.882;5.350;2023-08-06T07:05:33;20.63;;;7.82;;
18752;SDS011;9505;50.882;5.350;2023-08-06T07:07:58;21.40;;;8.15;;
18752;SDS011;9505;50.882;5.350;2023-08-06T07:10:25;22.85;;;8.60;;
18752;SDS011;9505;50.882;5.350;2023-08-06T07:12:51;15.90;;;7.55;;
18752;SDS011;9505;50.882;5.350;2023-08-06T07:15:16;18.08;;;7.50;;
18752;SDS011;9505;50.882;5.350;2023-08-06T07:17:42;22.80;;;7.32;;
18752;SDS011;9505;50.882;5.350;2023-08-06T07:20:08;23.77;;;6.55;;
18752;SDS011;9505;50.882;5.350;2023-08-06T07:22:34;22.13;;;6.20;;
18752;SDS011;9505;50.882;5.350;2023-08-06T07:25:00;65.13;;;9.93;;
18752;SDS011;9505;50.882;5.350;2023-08-06T07:27:26;54.22;;;9.40;;
18752;SDS011;9505;50.882;5.350;2023-08-06T07:29:52;38.90;;;6.70;;
18752;SDS011;9505;50.882;5.350;2023-08-06T07:32:17;25.65;;;4.95;;
18752;SDS011;9505;50.882;5.350;2023-08-06T07:34:43;21.70;;;4.07;;
18752;SDS011;9505;50.882;5.350;2023-08-06T07:37:09;46.47;;;6.90;;
18752;SDS011;9505;50.882;5.350;2023-08-06T07:39:34;28.80;;;4.93;;
18752;SDS011;9505;50.882;5.350;2023-08-06T07:42:02;24.08;;;4.05;;
18752;SDS011;9505;50.882;5.350;2023-08-06T07:44:30;16.98;;;3.70;;
18752;SDS011;9505;50.882;5.350;2023-08-06T07:46:56;41.35;;;6.20;;
18752;SDS011;9505;50.882;5.350;2023-08-06T07:49:22;47.05;;;6.63;;
18752;SDS011;9505;50.882;5.350;2023-08-06T07:51:47;34.42;;;5.50;;
18752;SDS011;9505;50.882;5.350;2023-08-06T07:54:13;17.85;;;4.70;;
18752;SDS011;9505;50.882;5.350;2023-08-06T07:56:39;52.22;;;7.22;;
18752;SDS011;9505;50.882;5.350;2023-08-06T07:59:05;39.15;;;5.88;;
18752;SDS011;9505;50.882;5.350;2023-08-06T08:01:30;24.17;;;4.35;;
18752;SDS011;9505;50.882;5.350;2023-08-06T08:03:56;11.70;;;3.17;;
18752;SDS011;9505;50.882;5.350;2023-08-06T08:06:21;53.58;;;7.25;;
18752;SDS011;9505;50.882;5.350;2023-08-06T08:08:48;54.65;;;7.50;;
18752;SDS011;9505;50.882;5.350;2023-08-06T08:11:14;34.30;;;5.63;;
18752;SDS011;9505;50.882;5.350;2023-08-06T08:13:41;18.58;;;3.92;;
18752;SDS011;9505;50.882;5.350;2023-08-06T08:16:07;33.63;;;5.15;;
18752;SDS011;9505;50.882;5.350;2023-08-06T08:18:32;48.72;;;7.20;;
18752;SDS011;9505;50.882;5.350;2023-08-06T08:20:58;42.33;;;6.60;;
18752;SDS011;9505;50.882;5.350;2023-08-06T08:23:24;19.83;;;4.18;;
18752;SDS011;9505;50.882;5.350;2023-08-06T08:25:49;29.88;;;4.25;;
18752;SDS011;9505;50.882;5.350;2023-08-06T08:28:15;56.50;;;7.40;;
18752;SDS011;9505;50.882;5.350;2023-08-06T08:30:41;34.97;;;4.85;;
18752;SDS011;9505;50.882;5.350;2023-08-06T08:33:07;17.67;;;3.25;;
18752;SDS011;9505;50.882;5.350;2023-08-06T08:35:33;28.08;;;4.90;;
18752;SDS011;9505;50.882;5.350;2023-08-06T08:37:59;50.13;;;7.35;;
18752;SDS011;9505;50.882;5.350;2023-08-06T08:40:26;51.75;;;7.28;;
18752;SDS011;9505;50.882;5.350;2023-08-06T08:42:58;36.95;;;6.35;;
18752;SDS011;9505;50.882;5.350;2023-08-06T08:45:26;24.38;;;3.95;;
18752;SDS011;9505;50.882;5.350;2023-08-06T08:47:53;18.45;;;4.25;;
18752;SDS011;9505;50.882;5.350;2023-08-06T08:50:19;46.05;;;6.88;;
18752;SDS011;9505;50.882;5.350;2023-08-06T08:52:46;52.22;;;7.90;;
18752;SDS011;9505;50.882;5.350;2023-08-06T08:55:14;41.65;;;5.80;;
18752;SDS011;9505;50.882;5.350;2023-08-06T08:57:41;18.90;;;2.90;;
18752;SDS011;9505;50.882;5.350;2023-08-06T09:00:07;20.25;;;3.33;;
18752;SDS011;9505;50.882;5.350;2023-08-06T09:02:33;57.38;;;6.88;;
18752;SDS011;9505;50.882;5.350;2023-08-06T09:04:59;53.63;;;6.47;;
18752;SDS011;9505;50.882;5.350;2023-08-06T09:07:29;27.00;;;3.95;;
18752;SDS011;9505;50.882;5.350;2023-08-06T09:10:04;45.90;;;5.43;;
18752;SDS011;9505;50.882;5.350;2023-08-06T09:12:31;23.63;;;3.55;;
18752;SDS011;9505;50.882;5.350;2023-08-06T09:14:57;19.10;;;3.20;;
18752;SDS011;9505;50.882;5.350;2023-08-06T09:17:23;42.38;;;5.20;;
18752;SDS011;9505;50.882;5.350;2023-08-06T09:19:49;53.20;;;6.15;;
18752;SDS011;9505;50.882;5.350;2023-08-06T09:22:14;38.60;;;4.43;;
18752;SDS011;9505;50.882;5.350;2023-08-06T09:24:41;14.80;;;2.70;;
18752;SDS011;9505;50.882;5.350;2023-08-06T09:27:10;36.45;;;5.20;;
18752;SDS011;9505;50.882;5.350;2023-08-06T09:29:43;46.58;;;5.85;;
18752;SDS011;9505;50.882;5.350;2023-08-06T09:32:10;60.17;;;6.82;;
18752;SDS011;9505;50.882;5.350;2023-08-06T09:34:38;51.88;;;5.45;;
18752;SDS011;9505;50.882;5.350;2023-08-06T09:37:05;34.28;;;4.25;;
18752;SDS011;9505;50.882;5.350;2023-08-06T09:39:31;19.10;;;2.72;;
18752;SDS011;9505;50.882;5.350;2023-08-06T09:41:57;35.58;;;4.43;;
18752;SDS011;9505;50.882;5.350;2023-08-06T09:44:24;53.95;;;6.70;;
18752;SDS011;9505;50.882;5.350;2023-08-06T09:49:19;25.80;;;3.03;;
18752;SDS011;9505;50.882;5.350;2023-08-06T09:51:46;22.45;;;3.58;;
18752;SDS011;9505;50.882;5.350;2023-08-06T09:54:16;19.15;;;2.22;;
18752;SDS011;9505;50.882;5.350;2023-08-06T09:56:43;33.15;;;4.45;;
18752;SDS011;9505;50.882;5.350;2023-08-06T09:59:08;40.10;;;5.00;;
18752;SDS011;9505;50.882;5.350;2023-08-06T10:01:36;34.03;;;4.32;;
18752;SDS011;9505;50.882;5.350;2023-08-06T10:04:02;19.75;;;2.80;;
18752;SDS011;9505;50.882;5.350;2023-08-06T10:06:31;19.13;;;3.05;;
18752;SDS011;9505;50.882;5.350;2023-08-06T10:08:59;22.25;;;2.95;;
18752;SDS011;9505;50.882;5.350;2023-08-06T10:11:25;53.78;;;6.13;;
18752;SDS011;9505;50.882;5.350;2023-08-06T10:13:55;42.08;;;5.47;;
18752;SDS011;9505;50.882;5.350;2023-08-06T10:16:31;56.60;;;6.68;;
18752;SDS011;9505;50.882;5.350;2023-08-06T10:18:59;51.25;;;6.38;;
18752;SDS011;9505;50.882;5.350;2023-08-06T10:21:26;28.73;;;4.38;;
18752;SDS011;9505;50.882;5.350;2023-08-06T10:23:53;18.75;;;3.05;;
18752;SDS011;9505;50.882;5.350;2023-08-06T10:26:19;14.05;;;2.95;;
18752;SDS011;9505;50.882;5.350;2023-08-06T10:28:45;41.75;;;5.97;;
18752;SDS011;9505;50.882;5.350;2023-08-06T10:31:11;40.92;;;5.63;;
18752;SDS011;9505;50.882;5.350;2023-08-06T10:33:40;34.50;;;4.95;;
18752;SDS011;9505;50.882;5.350;2023-08-06T10:36:10;35.25;;;5.05;;
18752;SDS011;9505;50.882;5.350;2023-08-06T10:38:43;24.25;;;4.15;;
18752;SDS011;9505;50.882;5.350;2023-08-06T10:41:14;23.15;;;3.65;;
18752;SDS011;9505;50.882;5.350;2023-08-06T10:44:05;27.90;;;4.50;;
18752;SDS011;9505;50.882;5.350;2023-08-06T10:46:33;23.55;;;4.07;;
18752;SDS011;9505;50.882;5.350;2023-08-06T10:48:58;32.22;;;4.50;;
18752;SDS011;9505;50.882;5.350;2023-08-06T10:51:24;49.33;;;5.97;;
18752;SDS011;9505;50.882;5.350;2023-08-06T10:53:50;28.00;;;3.67;;
18752;SDS011;9505;50.882;5.350;2023-08-06T10:56:17;10.35;;;1.95;;
18752;SDS011;9505;50.882;5.350;2023-08-06T10:58:44;12.90;;;2.50;;
18752;SDS011;9505;50.882;5.350;2023-08-06T11:01:11;34.92;;;4.40;;
18752;SDS011;9505;50.882;5.350;2023-08-06T11:03:37;47.17;;;5.78;;
18752;SDS011;9505;50.882;5.350;2023-08-06T11:06:04;39.15;;;4.90;;
18752;SDS011;9505;50.882;5.350;2023-08-06T11:08:38;25.73;;;3.85;;
18752;SDS011;9505;50.882;5.350;2023-08-06T11:11:13;48.92;;;6.00;;
18752;SDS011;9505;50.882;5.350;2023-08-06T11:13:42;22.50;;;3.25;;
18752;SDS011;9505;50.882;5.350;2023-08-06T11:16:11;41.92;;;5.07;;
18752;SDS011;9505;50.882;5.350;2023-08-06T11:18:41;13.85;;;1.92;;
18752;SDS011;9505;50.882;5.350;2023-08-06T11:21:07;11.32;;;1.80;;
18752;SDS011;9505;50.882;5.350;2023-08-06T11:23:33;27.80;;;3.58;;
18752;SDS011;9505;50.882;5.350;2023-08-06T11:26:00;51.88;;;5.53;;
18752;SDS011;9505;50.882;5.350;2023-08-06T11:28:26;31.83;;;3.90;;
18752;SDS011;9505;50.882;5.350;2023-08-06T11:30:52;18.92;;;2.28;;
18752;SDS011;9505;50.882;5.350;2023-08-06T11:33:29;11.13;;;1.30;;
18752;SDS011;9505;50.882;5.350;2023-08-06T11:35:55;14.65;;;1.85;;
18752;SDS011;9505;50.882;5.350;2023-08-06T11:38:29;15.50;;;1.75;;
18752;SDS011;9505;50.882;5.350;2023-08-06T11:40:55;17.77;;;2.05;;
18752;SDS011;9505;50.882;5.350;2023-08-06T11:43:21;37.72;;;4.45;;
18752;SDS011;9505;50.882;5.350;2023-08-06T11:45:47;43.25;;;4.97;;
18752;SDS011;9505;50.882;5.350;2023-08-06T11:48:14;34.55;;;4.25;;
18752;SDS011;9505;50.882;5.350;2023-08-06T11:50:40;29.48;;;3.17;;
18752;SDS011;9505;50.882;5.350;2023-08-06T11:53:05;24.35;;;3.17;;
18752;SDS011;9505;50.882;5.350;2023-08-06T11:55:31;51.75;;;5.70;;
18752;SDS011;9505;50.882;5.350;2023-08-06T11:57:58;38.08;;;4.65;;
18752;SDS011;9505;50.882;5.350;2023-08-06T12:00:28;21.25;;;2.53;;
18752;SDS011;9505;50.882;5.350;2023-08-06T12:02:54;12.93;;;1.83;;
18752;SDS011;9505;50.882;5.350;2023-08-06T12:05:22;25.05;;;3.05;;
18752;SDS011;9505;50.882;5.350;2023-08-06T12:07:49;40.35;;;4.82;;
18752;SDS011;9505;50.882;5.350;2023-08-06T12:10:16;38.05;;;4.50;;
18752;SDS011;9505;50.882;5.350;2023-08-06T12:12:44;43.95;;;5.13;;
18752;SDS011;9505;50.882;5.350;2023-08-06T12:15:10;12.10;;;1.73;;
18752;SDS011;9505;50.882;5.350;2023-08-06T12:17:37;20.20;;;2.60;;
18752;SDS011;9505;50.882;5.350;2023-08-06T12:20:04;42.17;;;5.18;;
18752;SDS011;9505;50.882;5.350;2023-08-06T12:22:31;45.10;;;5.70;;
18752;SDS011;9505;50.882;5.350;2023-08-06T12:25:00;32.88;;;4.63;;
18752;SDS011;9505;50.882;5.350;2023-08-06T12:27:28;13.80;;;2.15;;
18752;SDS011;9505;50.882;5.350;2023-08-06T12:29:54;11.77;;;2.10;;
18752;SDS011;9505;50.882;5.350;2023-08-06T12:32:20;45.13;;;5.43;;
18752;SDS011;9505;50.882;5.350;2023-08-06T12:34:47;44.25;;;5.55;;
18752;SDS011;9505;50.882;5.350;2023-08-06T12:37:13;16.42;;;2.28;;
18752;SDS011;9505;50.882;5.350;2023-08-06T12:39:38;15.57;;;2.38;;
18752;SDS011;9505;50.882;5.350;2023-08-06T12:42:04;43.53;;;5.22;;
18752;SDS011;9505;50.882;5.350;2023-08-06T12:44:31;60.28;;;5.63;;
18752;SDS011;9505;50.882;5.350;2023-08-06T12:46:57;25.27;;;3.42;;
18752;SDS011;9505;50.882;5.350;2023-08-06T12:49:23;16.08;;;2.10;;
18752;SDS011;9505;50.882;5.350;2023-08-06T12:51:50;29.42;;;4.00;;
18752;SDS011;9505;50.882;5.350;2023-08-06T12:54:19;45.15;;;5.65;;
18752;SDS011;9505;50.882;5.350;2023-08-06T12:56:45;52.83;;;6.03;;
18752;SDS011;9505;50.882;5.350;2023-08-06T12:59:12;22.38;;;2.80;;
18752;SDS011;9505;50.882;5.350;2023-08-06T13:01:41;21.13;;;2.83;;
18752;SDS011;9505;50.882;5.350;2023-08-06T13:04:07;33.53;;;3.72;;
18752;SDS011;9505;50.882;5.350;2023-08-06T13:06:33;54.58;;;6.15;;
18752;SDS011;9505;50.882;5.350;2023-08-06T13:09:04;40.75;;;4.82;;
18752;SDS011;9505;50.882;5.350;2023-08-06T13:11:31;26.35;;;3.53;;
18752;SDS011;9505;50.882;5.350;2023-08-06T13:14:00;11.15;;;2.03;;
18752;SDS011;9505;50.882;5.350;2023-08-06T13:16:30;11.77;;;2.15;;
18752;SDS011;9505;50.882;5.350;2023-08-06T13:18:56;37.95;;;5.13;;
18752;SDS011;9505;50.882;5.350;2023-08-06T13:21:21;47.20;;;6.15;;
18752;SDS011;9505;50.882;5.350;2023-08-06T13:23:47;29.80;;;3.72;;
18752;SDS011;9505;50.882;5.350;2023-08-06T13:26:13;13.13;;;2.40;;
18752;SDS011;9505;50.882;5.350;2023-08-06T13:28:40;25.65;;;3.72;;
18752;SDS011;9505;50.882;5.350;2023-08-06T13:31:06;48.58;;;6.18;;
18752;SDS011;9505;50.882;5.350;2023-08-06T13:33:32;28.02;;;4.03;;
18752;SDS011;9505;50.882;5.350;2023-08-06T13:35:58;12.82;;;2.13;;
18752;SDS011;9505;50.882;5.350;2023-08-06T13:38:24;38.67;;;5.20;;
18752;SDS011;9505;50.882;5.350;2023-08-06T13:40:49;47.90;;;5.97;;
18752;SDS011;9505;50.882;5.350;2023-08-06T13:43:15;24.48;;;3.75;;
18752;SDS011;9505;50.882;5.350;2023-08-06T13:45:44;21.48;;;3.15;;
18752;SDS011;9505;50.882;5.350;2023-08-06T13:48:09;37.70;;;3.83;;
18752;SDS011;9505;50.882;5.350;2023-08-06T13:50:35;60.45;;;7.38;;
18752;SDS011;9505;50.882;5.350;2023-08-06T13:53:02;45.72;;;5.32;;
18752;SDS011;9505;50.882;5.350;2023-08-06T13:55:28;11.00;;;2.33;;
18752;SDS011;9505;50.882;5.350;2023-08-06T13:57:53;16.75;;;2.55;;
18752;SDS011;9505;50.882;5.350;2023-08-06T14:00:19;50.40;;;6.75;;
18752;SDS011;9505;50.882;5.350;2023-08-06T14:02:45;56.08;;;6.53;;
18752;SDS011;9505;50.882;5.350;2023-08-06T14:05:10;20.90;;;2.72;;
18752;SDS011;9505;50.882;5.350;2023-08-06T14:07:36;7.88;;;1.70;;
18752;SDS011;9505;50.882;5.350;2023-08-06T14:10:02;48.50;;;5.72;;
18752;SDS011;9505;50.882;5.350;2023-08-06T14:12:28;46.03;;;5.07;;
18752;SDS011;9505;50.882;5.350;2023-08-06T14:14:53;27.63;;;3.10;;
18752;SDS011;9505;50.882;5.350;2023-08-06T14:17:19;12.90;;;1.83;;
18752;SDS011;9505;50.882;5.350;2023-08-06T14:19:44;44.60;;;5.85;;
18752;SDS011;9505;50.882;5.350;2023-08-06T14:22:10;46.60;;;5.75;;
18752;SDS011;9505;50.882;5.350;2023-08-06T14:24:36;21.30;;;3.20;;
18752;SDS011;9505;50.882;5.350;2023-08-06T14:27:01;10.10;;;1.90;;
18752;SDS011;9505;50.882;5.350;2023-08-06T14:29:29;45.00;;;5.03;;
18752;SDS011;9505;50.882;5.350;2023-08-06T14:31:54;32.28;;;4.13;;
18752;SDS011;9505;50.882;5.350;2023-08-06T14:34:21;36.58;;;4.75;;
18752;SDS011;9505;50.882;5.350;2023-08-06T14:36:47;18.65;;;2.70;;
18752;SDS011;9505;50.882;5.350;2023-08-06T14:39:13;18.88;;;2.63;;
18752;SDS011;9505;50.882;5.350;2023-08-06T14:41:39;45.90;;;5.10;;
18752;SDS011;9505;50.882;5.350;2023-08-06T14:44:04;41.45;;;4.72;;
18752;SDS011;9505;50.882;5.350;2023-08-06T14:46:32;18.85;;;2.30;;
18752;SDS011;9505;50.882;5.350;2023-08-06T14:48:58;11.70;;;1.63;;
18752;SDS011;9505;50.882;5.350;2023-08-06T14:51:23;39.22;;;4.72;;
18752;SDS011;9505;50.882;5.350;2023-08-06T14:53:49;46.05;;;5.40;;